Time;durP1;ratioP1;P1;durP2;ratioP2;P2;SDS_P1;SDS_P2;PMS_P1;PMS_P2;Temp;Humidity;BMP_temperature;BMP_pressure;BME280_temperature;BME280_humidity;BME280_pressure;Samples;Min_cycle;Max_cycle;Signal;HPM_P1;HPM_P2
2022/05/29 00:00:46;;;;;;;;;6.75;5.00;;;;;16.22;43.35;101320.25;5014063;28;45681;-76
2022/05/29 00:03:12;;;;;;;;;1.50;1.50;;;;;16.17;43.36;101316.06;5032107;28;45372;-76
2022/05/29 00:05:38;;;;;;;;;4.75;3.25;;;;;16.13;43.52;101309.19;5033371;28;45357;-76
2022/05/29 00:08:04;;;;;;;;;4.00;2.00;;;;;16.11;43.61;101305.75;5031841;28;45405;-75
2022/05/29 00:10:32;;;;;;;;;1.00;1.00;;;;;16.09;43.54;101307.69;5029641;28;45565;-76
2022/05/29 00:12:58;;;;;;;;;0.00;0.00;;;;;16.08;43.65;101305.97;5032242;28;45632;-76
2022/05/29 00:15:23;;;;;;;;;2.00;1.00;;;;;16.06;43.65;101307.03;5033661;28;45606;-76
2022/05/29 00:17:49;;;;;;;;;2.75;2.00;;;;;16.03;43.99;101299.22;5034271;28;46559;-76
2022/05/29 00:20:14;;;;;;;;;1.50;1.50;;;;;16.01;44.06;101301.13;5030786;28;45629;-76
2022/05/29 00:22:40;;;;;;;;;2.00;2.00;;;;;15.98;44.10;101296.84;5033158;28;46738;-77
2022/05/29 00:25:09;;;;;;;;;1.00;1.00;;;;;15.95;44.04;101302.44;5033646;28;45466;-76
2022/05/29 00:27:35;;;;;;;;;2.50;2.50;;;;;15.88;44.15;101306.50;5034231;28;45471;-75
2022/05/29 00:30:00;;;;;;;;;1.00;1.00;;;;;15.86;44.43;101303.91;5033216;28;45453;-76
2022/05/29 00:32:26;;;;;;;;;2.00;2.00;;;;;15.84;44.34;101294.25;5034148;28;45848;-77
2022/05/29 00:34:51;;;;;;;;;2.50;2.00;;;;;15.80;44.47;101290.91;5033151;28;45514;-75
2022/05/29 00:37:17;;;;;;;;;3.00;1.75;;;;;15.77;44.65;101286.63;5033597;28;45638;-75
2022/05/29 00:39:42;;;;;;;;;0.25;0.25;;;;;15.78;44.65;101298.25;5033911;28;45283;-75
2022/05/29 00:42:12;;;;;;;;;1.75;1.75;;;;;15.74;44.67;101289.53;5032563;28;45979;-75
2022/05/29 00:44:38;;;;;;;;;0.25;0.25;;;;;15.73;44.80;101292.34;5034184;28;47404;-76
2022/05/29 00:47:06;;;;;;;;;1.00;1.00;;;;;15.72;44.80;101285.22;5033384;28;45615;-74
2022/05/29 00:49:34;;;;;;;;;4.25;1.00;;;;;15.70;44.66;101292.50;5029032;28;45512;-75
2022/05/29 00:52:27;;;;;;;;;1.00;1.00;;;;;15.68;45.11;101279.19;5033229;28;45442;-75
2022/05/29 00:55:01;;;;;;;;;3.75;2.00;;;;;15.66;44.87;101285.63;5033045;28;45399;-75
2022/05/29 00:57:32;;;;;;;;;3.00;2.00;;;;;15.63;45.23;101294.72;5032936;28;45503;-75
2022/05/29 01:00:00;;;;;;;;;1.25;1.25;;;;;15.57;45.23;101289.78;5015437;28;45485;-76
2022/05/29 01:02:26;;;;;;;;;3.00;2.00;;;;;15.51;45.01;101295.56;5034177;28;45460;-76
2022/05/29 01:04:52;;;;;;;;;0.25;0.25;;;;;15.44;45.33;101295.16;5033129;28;45277;-77
2022/05/29 01:07:21;;;;;;;;;1.00;1.00;;;;;15.41;45.61;101287.28;5033115;28;45452;-76
2022/05/29 01:09:49;;;;;;;;;1.75;1.75;;;;;15.40;45.57;101284.72;5013457;28;46024;-77
2022/05/29 01:12:45;;;;;;;;;2.75;1.25;;;;;15.35;45.78;101271.63;5032999;28;45557;-76
2022/05/29 01:15:32;;;;;;;;;1.00;1.00;;;;;15.35;45.77;101276.97;5030842;28;45516;-77
2022/05/29 01:18:07;;;;;;;;;1.00;1.00;;;;;15.32;45.89;101282.53;5033101;28;45535;-77
2022/05/29 01:21:14;;;;;;;;;1.75;1.75;;;;;15.29;45.91;101280.91;5016046;28;45497;-77
2022/05/29 01:24:19;;;;;;;;;1.00;1.00;;;;;15.27;45.95;101269.47;4956103;28;46289;-76
2022/05/29 01:27:13;;;;;;;;;1.50;1.00;;;;;15.21;46.12;101264.50;4959461;28;45936;-76
2022/05/29 01:29:55;;;;;;;;;2.50;2.50;;;;;15.17;46.40;101262.97;4963360;28;45534;-76
2022/05/29 01:32:37;;;;;;;;;1.75;1.75;;;;;15.14;46.46;101263.19;4974343;28;45357;-77
2022/05/29 01:35:53;;;;;;;;;1.25;1.25;;;;;15.08;46.56;101259.09;4967448;28;46513;-75
2022/05/29 01:38:29;;;;;;;;;1.00;1.00;;;;;15.05;46.94;101258.44;4857377;29;45443;-77
2022/05/29 01:41:07;;;;;;;;;1.75;1.75;;;;;14.99;46.52;101254.34;4859510;29;45470;-76
2022/05/29 01:43:57;;;;;;;;;0.50;0.50;;;;;14.96;46.93;101261.72;4856786;29;45461;-76
2022/05/29 01:46:30;;;;;;;;;2.25;2.25;;;;;14.91;47.23;101257.53;4856893;29;46595;-77
2022/05/29 01:49:04;;;;;;;;;1.00;1.00;;;;;14.90;47.26;101250.44;4857727;29;45717;-77
2022/05/29 01:51:40;;;;;;;;;2.00;2.00;;;;;14.84;47.44;101250.88;4857341;29;45520;-77
2022/05/29 01:54:17;;;;;;;;;1.50;1.50;;;;;14.85;47.46;101252.56;4859609;29;45686;-77
2022/05/29 01:57:10;;;;;;;;;2.00;2.00;;;;;14.84;47.59;101255.34;4864200;29;45458;-76
2022/05/29 01:59:45;;;;;;;;;2.00;2.00;;;;;14.84;47.49;101252.66;4895417;28;45457;-75
2022/05/29 02:02:14;;;;;;;;;2.00;2.00;;;;;14.83;47.72;101250.94;4916461;28;45492;-76
2022/05/29 02:04:48;;;;;;;;;2.25;2.25;;;;;14.79;47.92;101250.31;4912682;28;45475;-77
2022/05/29 02:10:14;;;;;;;;;1.75;1.00;;;;;14.73;48.24;101245.34;5032541;28;45559;-76
2022/05/29 02:12:51;;;;;;;;;1.25;1.00;;;;;14.69;48.32;101244.66;5035960;28;45577;-76
2022/05/29 02:15:26;;;;;;;;;2.00;2.00;;;;;14.64;48.71;101256.66;5034245;28;45695;-77
2022/05/29 02:17:56;;;;;;;;;1.00;1.00;;;;;14.61;48.61;101251.50;5035787;28;45615;-77
2022/05/29 02:20:29;;;;;;;;;1.00;1.00;;;;;14.55;48.64;101249.22;5036551;28;45456;-76
2022/05/29 02:23:03;;;;;;;;;2.50;2.00;;;;;14.56;48.88;101245.59;5035643;28;45460;-76
2022/05/29 02:25:30;;;;;;;;;2.00;2.00;;;;;14.55;48.98;101244.72;5035756;28;45490;-76
2022/05/29 02:28:08;;;;;;;;;2.25;1.75;;;;;14.50;49.09;101244.09;5035324;28;46170;-76
2022/05/29 02:30:57;;;;;;;;;1.25;1.25;;;;;14.45;49.17;101236.38;5035802;28;45521;-77
2022/05/29 02:33:29;;;;;;;;;4.00;1.00;;;;;14.44;49.19;101250.72;4952902;28;45620;-76
2022/05/29 02:35:54;;;;;;;;;2.25;1.00;;;;;14.40;49.17;101235.81;4948309;28;45549;-76
2022/05/29 02:38:36;;;;;;;;;1.75;1.75;;;;;14.40;49.51;101237.63;4954726;28;45513;-76
2022/05/29 02:41:10;;;;;;;;;2.25;2.00;;;;;14.34;49.80;101230.00;4953396;28;45597;-75
2022/05/29 02:43:47;;;;;;;;;2.00;2.00;;;;;14.31;49.75;101224.81;4951867;28;45437;-76
2022/05/29 02:46:12;;;;;;;;;1.00;1.00;;;;;14.26;49.87;101227.78;4954373;28;45544;-77
2022/05/29 02:48:56;;;;;;;;;2.25;1.75;;;;;14.24;50.22;101229.75;4939821;28;46133;-76
2022/05/29 02:51:42;;;;;;;;;1.50;1.50;;;;;14.21;50.29;101221.88;4944245;28;45410;-76
2022/05/29 02:54:19;;;;;;;;;2.50;2.50;;;;;14.20;50.51;101223.69;4949509;28;45602;-76
2022/05/29 02:56:44;;;;;;;;;1.00;1.00;;;;;14.18;50.51;101228.28;4942786;28;46696;-76
2022/05/29 02:59:09;;;;;;;;;2.00;1.00;;;;;14.14;50.27;101223.22;4949554;28;45426;-76
2022/05/29 03:01:52;;;;;;;;;1.25;1.25;;;;;14.11;50.45;101224.28;4947899;28;45576;-76
2022/05/29 03:04:30;;;;;;;;;2.00;2.00;;;;;14.09;50.98;101218.16;4951307;28;46331;-76
2022/05/29 03:06:59;;;;;;;;;2.00;2.00;;;;;14.06;50.81;101211.19;4944905;28;45607;-76
2022/05/29 03:09:31;;;;;;;;;5.25;2.00;;;;;14.02;51.14;101211.47;4960435;28;45549;-76
2022/05/29 03:11:56;;;;;;;;;1.00;1.00;;;;;14.00;50.93;101210.72;5036089;28;45603;-77
2022/05/29 03:14:49;;;;;;;;;2.00;1.00;;;;;14.00;51.00;101213.41;5036761;28;45357;-77
2022/05/29 03:17:43;;;;;;;;;2.00;2.00;;;;;13.99;51.33;101214.34;5035668;28;45440;-77
2022/05/29 03:20:34;;;;;;;;;3.50;2.00;;;;;13.95;51.36;101220.84;5035932;28;46255;-77
2022/05/29 03:23:14;;;;;;;;;2.25;2.25;;;;;13.87;51.64;101207.94;5035902;28;45383;-77
2022/05/29 03:25:50;;;;;;;;;1.75;1.75;;;;;13.85;51.51;101213.41;5035896;28;45458;-77
2022/05/29 03:28:33;;;;;;;;;1.50;1.50;;;;;13.89;51.83;101218.56;5035873;28;45407;-77
2022/05/29 03:31:04;;;;;;;;;1.75;1.50;;;;;13.84;52.25;101206.31;5035608;28;46274;-77
2022/05/29 03:33:29;;;;;;;;;1.00;1.00;;;;;13.81;51.89;101211.88;5035479;28;45461;-77
2022/05/29 03:35:54;;;;;;;;;2.25;2.00;;;;;13.79;52.09;101213.78;5035752;28;47101;-77
2022/05/29 03:38:21;;;;;;;;;0.50;0.50;;;;;13.77;52.04;101212.16;5036209;28;45491;-77
2022/05/29 03:40:49;;;;;;;;;2.25;2.25;;;;;13.74;51.98;101210.53;5027071;28;46204;-77
2022/05/29 03:43:14;;;;;;;;;1.50;1.50;;;;;13.76;52.27;101211.31;5024530;28;45587;-77
2022/05/29 03:45:40;;;;;;;;;1.75;1.75;;;;;13.70;52.21;101208.13;5023888;28;45651;-77
2022/05/29 03:48:06;;;;;;;;;2.00;2.00;;;;;13.66;52.31;101203.91;5019794;28;45356;-76
2022/05/29 03:50:34;;;;;;;;;3.50;3.00;;;;;13.64;52.49;101218.25;5021569;28;46341;-77
2022/05/29 03:53:00;;;;;;;;;4.00;4.00;;;;;13.62;52.57;101203.25;5024390;28;45759;-77
2022/05/29 03:55:26;;;;;;;;;2.50;2.50;;;;;13.62;52.86;101211.28;5024390;28;45535;-77
2022/05/29 03:57:52;;;;;;;;;4.25;2.50;;;;;13.63;52.49;101202.28;5024099;28;45593;-77
2022/05/29 04:00:19;;;;;;;;;3.00;3.00;;;;;13.62;52.63;101201.44;5002613;28;49147;-77
2022/05/29 04:02:46;;;;;;;;;3.50;2.25;;;;;13.57;52.76;101208.91;5019711;28;45462;-77
2022/05/29 04:05:15;;;;;;;;;3.00;3.00;;;;;13.53;52.64;101210.03;5005263;28;45419;-77
2022/05/29 04:13:11;;;;;;;;;3.25;3.25;;;;;13.49;53.10;101210.31;5023861;28;45440;-77
2022/05/29 04:15:41;;;;;;;;;2.00;2.00;;;;;13.48;53.09;101211.28;5021333;28;45446;-77
2022/05/29 04:18:07;;;;;;;;;3.00;3.00;;;;;13.46;53.10;101205.16;5018261;28;45435;-77
2022/05/29 04:20:33;;;;;;;;;2.25;2.25;;;;;13.46;53.31;101207.81;5024944;28;45564;-77
2022/05/29 04:22:58;;;;;;;;;4.00;3.00;;;;;13.41;53.24;101205.44;5025206;28;45473;-77
2022/05/29 04:25:23;;;;;;;;;4.25;2.50;;;;;13.38;53.21;101200.28;5023624;28;45573;-77
2022/05/29 04:27:49;;;;;;;;;2.75;2.00;;;;;13.41;53.69;101222.31;5027338;28;45450;-77
2022/05/29 04:30:14;;;;;;;;;2.00;2.00;;;;;13.39;53.54;101207.31;5019352;28;54167;-77
2022/05/29 04:35:23;;;;;;;;;1.00;1.00;;;;;13.38;53.46;101202.94;5020337;28;45478;-77
2022/05/29 04:37:49;;;;;;;;;2.25;2.25;;;;;13.38;53.49;101208.28;5024250;28;45532;-78
2022/05/29 04:40:14;;;;;;;;;4.00;3.00;;;;;13.38;53.79;101206.47;5022590;28;57414;-77
2022/05/29 04:42:40;;;;;;;;;2.00;2.00;;;;;13.36;53.57;101200.34;5022822;28;45530;-77
2022/05/29 04:45:06;;;;;;;;;2.00;2.00;;;;;13.37;53.85;101202.09;5018253;28;45416;-77
2022/05/29 04:47:31;;;;;;;;;1.50;1.50;;;;;13.37;53.85;101206.56;5020992;28;45484;-77
2022/05/29 04:49:56;;;;;;;;;3.50;3.00;;;;;13.35;53.85;101201.31;5023115;28;51151;-77
2022/05/29 04:52:22;;;;;;;;;1.75;1.75;;;;;13.34;54.02;101207.59;5023583;28;45417;-76
2022/05/29 04:54:47;;;;;;;;;4.00;3.00;;;;;13.35;54.16;101208.50;5022789;28;51309;-76
2022/05/29 04:57:12;;;;;;;;;1.25;1.25;;;;;13.34;54.18;101199.56;5033852;28;51500;-77
2022/05/29 04:59:38;;;;;;;;;2.00;2.00;;;;;13.34;54.13;101204.94;5019572;28;45780;-77
2022/05/29 05:02:04;;;;;;;;;3.00;1.00;;;;;13.35;54.21;101203.13;5023251;28;45443;-77
2022/05/29 05:04:30;;;;;;;;;3.00;3.00;;;;;13.37;54.07;101201.22;5023363;28;45453;-77
2022/05/29 05:06:58;;;;;;;;;2.50;1.50;;;;;13.38;54.25;101202.94;5023119;28;45413;-77
2022/05/29 05:09:24;;;;;;;;;2.75;2.75;;;;;13.40;54.33;101203.72;5020276;28;46431;-77
2022/05/29 05:11:52;;;;;;;;;1.00;1.00;;;;;13.41;54.27;101202.75;5018863;28;45367;-77
2022/05/29 05:14:18;;;;;;;;;2.50;2.00;;;;;13.41;54.16;101197.41;5022395;28;45342;-77
2022/05/29 05:16:43;;;;;;;;;2.00;2.00;;;;;13.43;53.95;101209.72;5023428;28;45495;-77
2022/05/29 05:19:09;;;;;;;;;3.75;3.00;;;;;13.45;53.96;101212.31;5023192;28;45913;-77
2022/05/29 05:21:34;;;;;;;;;2.00;2.00;;;;;13.43;54.25;101209.72;5003886;28;46056;-77
2022/05/29 05:23:59;;;;;;;;;2.00;2.00;;;;;13.44;54.29;101205.22;5000652;28;45303;-77
2022/05/29 05:26:25;;;;;;;;;2.00;2.00;;;;;13.45;54.34;101206.97;5021090;28;46575;-78
2022/05/29 05:28:50;;;;;;;;;1.75;1.75;;;;;13.41;54.09;101203.59;5024164;28;45495;-77
2022/05/29 05:31:15;;;;;;;;;2.00;2.00;;;;;13.45;54.17;101206.97;5026548;28;45392;-77
2022/05/29 05:33:41;;;;;;;;;3.50;3.50;;;;;13.42;54.19;101193.75;5026031;28;45547;-77
2022/05/29 05:36:06;;;;;;;;;2.00;2.00;;;;;13.40;54.35;101201.03;5022014;28;45562;-77
2022/05/29 05:38:32;;;;;;;;;4.00;3.00;;;;;13.40;54.46;101193.03;5023421;28;47008;-77
2022/05/29 05:40:58;;;;;;;;;2.00;2.00;;;;;13.40;54.44;101191.19;5026525;28;45341;-77
2022/05/29 05:43:23;;;;;;;;;2.75;1.25;;;;;13.41;54.44;101200.06;5026559;28;45470;-77
2022/05/29 05:45:48;;;;;;;;;3.00;3.00;;;;;13.41;54.55;101202.75;5026355;28;45454;-77
2022/05/29 05:48:15;;;;;;;;;6.00;2.50;;;;;13.43;54.60;101203.53;5022083;28;45996;-77
2022/05/29 05:50:40;;;;;;;;;2.00;2.00;;;;;13.43;55.01;101200.84;5022625;28;45580;-78
2022/05/29 05:53:05;;;;;;;;;2.25;2.25;;;;;13.46;54.30;101200.66;5026422;28;46132;-77
2022/05/29 05:55:31;;;;;;;;;3.50;2.00;;;;;13.47;54.19;101201.50;5026346;28;45373;-77
2022/05/29 05:57:56;;;;;;;;;2.00;2.00;;;;;13.48;54.34;101197.91;5025772;28;46286;-77
2022/05/29 06:00:23;;;;;;;;;4.00;3.00;;;;;13.49;54.41;101202.28;5029770;28;45545;-77
2022/05/29 06:02:48;;;;;;;;;5.75;3.50;;;;;13.51;54.26;101201.22;5002926;28;45405;-76
2022/05/29 06:05:15;;;;;;;;;3.50;2.75;;;;;13.54;54.35;101205.53;5025693;28;45421;-77
2022/05/29 06:07:41;;;;;;;;;2.00;2.00;;;;;13.54;53.89;101205.53;5025900;28;46031;-76
2022/05/29 06:10:09;;;;;;;;;3.50;3.00;;;;;13.55;54.15;101201.91;5025646;28;45496;-77
2022/05/29 06:12:34;;;;;;;;;2.50;1.50;;;;;13.57;54.29;101198.19;5024671;28;45341;-76
2022/05/29 06:14:59;;;;;;;;;2.75;2.75;;;;;13.62;54.50;101203.25;5021030;28;45230;-77
2022/05/29 06:17:27;;;;;;;;;2.75;2.75;;;;;13.67;54.59;101194.97;5030164;28;46146;-77
2022/05/29 06:19:52;;;;;;;;;3.50;1.50;;;;;13.67;54.36;101192.28;5027415;28;45375;-77
2022/05/29 06:22:17;;;;;;;;;2.25;2.00;;;;;13.69;53.96;101190.38;5029974;28;45305;-76
2022/05/29 06:24:43;;;;;;;;;3.25;2.25;;;;;13.75;53.98;101185.47;5036907;28;45519;-77
2022/05/29 06:27:08;;;;;;;;;4.00;3.00;;;;;13.75;53.93;101185.47;5027789;28;45559;-76
2022/05/29 06:29:34;;;;;;;;;2.00;2.00;;;;;13.85;54.05;101193.78;5033451;28;45507;-76
2022/05/29 06:32:00;;;;;;;;;2.00;2.00;;;;;13.88;53.67;101182.03;5026926;28;45455;-76
2022/05/29 06:34:26;;;;;;;;;1.75;1.75;;;;;13.93;53.70;101198.69;5028240;28;45503;-76
2022/05/29 06:36:52;;;;;;;;;1.50;1.50;;;;;13.97;53.71;101194.84;5025383;28;45555;-77
2022/05/29 06:39:18;;;;;;;;;1.75;1.75;;;;;14.01;53.78;101186.53;5031086;28;45537;-75
2022/05/29 06:41:44;;;;;;;;;2.25;2.25;;;;;14.03;53.36;101186.44;5028701;28;45467;-77
2022/05/29 06:44:10;;;;;;;;;1.50;1.50;;;;;14.13;53.34;101194.75;5025463;28;45526;-76
2022/05/29 06:46:35;;;;;;;;;1.50;1.50;;;;;14.16;53.06;101189.19;5027540;28;45743;-76
2022/05/29 06:49:01;;;;;;;;;3.00;3.00;;;;;14.19;53.07;101192.53;5030436;28;45617;-77
2022/05/29 06:51:27;;;;;;;;;1.50;1.25;;;;;14.24;52.67;101195.78;5021804;28;45724;-76
2022/05/29 06:53:55;;;;;;;;;2.00;2.00;;;;;14.28;52.55;101194.59;5022917;28;45631;-77
2022/05/29 06:56:21;;;;;;;;;0.75;0.75;;;;;14.32;52.29;101194.44;5023431;28;46190;-77
2022/05/29 06:58:47;;;;;;;;;1.00;1.00;;;;;14.37;52.35;101192.31;5031571;28;45476;-77
2022/05/29 07:07:00;;;;;;;;;1.75;1.75;;;;;14.52;51.75;101187.75;5033471;28;45777;-77
2022/05/29 07:09:37;;;;;;;;;1.25;1.00;;;;;14.56;51.38;101192.84;5031191;28;45365;-77
2022/05/29 07:12:05;;;;;;;;;1.50;1.00;;;;;14.60;51.20;101182.78;5020180;28;45398;-77
2022/05/29 07:14:32;;;;;;;;;1.50;1.50;;;;;14.62;51.04;101186.22;5030254;28;45626;-76
2022/05/29 07:16:57;;;;;;;;;2.50;2.00;;;;;14.64;50.84;101190.50;5024197;28;46381;-74
2022/05/29 07:19:25;;;;;;;;;3.00;2.00;;;;;14.67;50.46;101187.66;5032811;28;45344;-74
2022/05/29 07:21:56;;;;;;;;;2.00;2.00;;;;;14.72;50.52;101190.03;5026577;28;45516;-74
2022/05/29 07:24:21;;;;;;;;;1.00;1.00;;;;;14.76;50.18;101193.34;5027920;28;45510;-74
2022/05/29 07:26:46;;;;;;;;;2.00;2.00;;;;;14.80;49.38;101181.47;5017873;28;55203;-74
2022/05/29 07:29:12;;;;;;;;;2.00;2.00;;;;;14.80;49.20;101178.78;5024253;28;45433;-75
2022/05/29 07:31:38;;;;;;;;;2.00;2.00;;;;;14.84;49.04;101186.53;5024683;28;45514;-74
2022/05/29 07:34:03;;;;;;;;;1.50;1.50;;;;;14.88;49.18;101187.16;5020813;28;45468;-73
2022/05/29 07:36:28;;;;;;;;;2.00;2.00;;;;;14.90;48.75;101183.44;5023148;28;45990;-74
2022/05/29 07:38:54;;;;;;;;;3.25;2.00;;;;;14.93;48.07;101179.69;5028686;28;47950;-75
2022/05/29 07:44:04;;;;;;;;;4.25;1.25;;;;;14.95;47.77;101180.44;5037003;28;45441;-74
2022/05/29 07:46:30;;;;;;;;;2.50;2.50;;;;;14.98;47.76;101182.06;5023474;28;46367;-75
2022/05/29 07:48:55;;;;;;;;;1.75;1.00;;;;;15.00;47.42;101178.31;5036949;28;45440;-75
2022/05/29 07:51:21;;;;;;;;;1.00;1.00;;;;;15.06;48.02;101179.72;5050267;28;45304;-74
2022/05/29 07:53:46;;;;;;;;;1.00;1.00;;;;;15.08;47.24;101184.03;5032910;28;49082;-75
2022/05/29 07:56:16;;;;;;;;;1.75;1.75;;;;;15.08;47.50;101175.97;5035550;28;46299;-75
2022/05/29 07:58:44;;;;;;;;;2.25;1.00;;;;;15.16;46.94;101175.44;5027461;28;45459;-75
2022/05/29 08:01:09;;;;;;;;;3.00;1.25;;;;;15.21;47.06;101183.19;5032290;28;45530;-75
2022/05/29 08:03:35;;;;;;;;;1.25;1.00;;;;;15.25;46.73;101179.31;5022869;28;45385;-75
2022/05/29 08:06:01;;;;;;;;;1.50;1.50;;;;;15.26;46.37;101171.16;5019133;28;45309;-75
2022/05/29 08:08:28;;;;;;;;;0.75;0.75;;;;;15.21;45.78;101180.50;5034602;28;45416;-74
2022/05/29 08:10:54;;;;;;;;;1.00;1.00;;;;;15.24;45.69;101175.75;5030742;28;45363;-76
2022/05/29 08:13:19;;;;;;;;;1.00;1.00;;;;;15.24;45.36;101169.53;5030751;28;45440;-75
2022/05/29 08:15:44;;;;;;;;;1.00;1.00;;;;;15.31;46.80;101160.13;5041236;28;45393;-88
2022/05/29 08:18:10;;;;;;;;;2.50;1.00;;;;;15.40;45.79;101151.44;5019229;28;45492;-88
2022/05/29 08:20:39;;;;;;;;;1.00;1.00;;;;;15.45;45.33;101167.22;5021124;28;45386;-88
2022/05/29 08:23:05;;;;;;;;;0.00;0.00;;;;;15.52;45.19;101163.13;5024084;28;45713;-89
2022/05/29 08:30:58;;;;;;;;;1.00;1.00;;;;;15.64;44.20;101158.72;5025746;28;45568;-87
2022/05/29 08:33:29;;;;;;;;;2.00;0.00;;;;;15.65;43.85;101149.69;5019141;28;45516;-87
2022/05/29 08:36:04;;;;;;;;;1.25;1.25;;;;;15.71;43.89;101155.53;5027432;28;46812;-87
2022/05/29 08:38:31;;;;;;;;;2.50;2.50;;;;;15.73;44.07;101158.97;5020609;28;45667;-86
2022/05/29 08:41:03;;;;;;;;;0.00;0.00;;;;;15.73;43.28;101153.59;5024186;28;45456;-87
2022/05/29 08:43:39;;;;;;;;;1.00;1.00;;;;;15.73;42.87;101156.28;5027585;28;45373;-87
2022/05/29 08:46:15;;;;;;;;;2.50;1.50;;;;;15.70;43.30;101155.63;5032185;28;45670;-87
2022/05/29 08:48:40;;;;;;;;;2.00;2.00;;;;;15.68;43.11;101155.72;5027515;28;45534;-86
2022/05/29 08:51:34;;;;;;;;;8.00;7.25;;;;;15.69;43.10;101148.53;5018975;28;45554;-86
2022/05/29 08:54:16;;;;;;;;;1.50;1.50;;;;;15.66;42.98;101149.59;5033276;28;45401;-87
2022/05/29 08:56:57;;;;;;;;;4.25;1.00;;;;;15.65;43.38;101144.34;5029999;28;48707;-87
2022/05/29 08:59:45;;;;;;;;;2.00;2.00;;;;;15.63;43.43;101144.44;5020606;28;45585;-89
2022/05/29 09:02:27;;;;;;;;;1.00;1.00;;;;;15.64;43.33;101146.16;5021177;28;45355;-85
2022/05/29 09:04:58;;;;;;;;;1.00;1.00;;;;;15.63;43.20;101144.44;5022414;28;45504;-85
2022/05/29 09:07:29;;;;;;;;;1.00;1.00;;;;;15.58;43.75;101145.72;5023148;28;45400;-86
2022/05/29 09:10:00;;;;;;;;;2.00;2.00;;;;;15.61;43.95;101135.66;5025654;28;47911;-85
2022/05/29 09:12:37;;;;;;;;;1.00;1.00;;;;;15.65;44.08;101138.97;5034699;28;45591;-85
2022/05/29 09:15:12;;;;;;;;;1.00;1.00;;;;;15.68;43.94;101128.00;5018478;28;45295;-88
2022/05/29 09:17:49;;;;;;;;;1.50;1.00;;;;;15.75;43.83;101129.31;5019583;28;46570;-87
2022/05/29 09:20:42;;;;;;;;;2.25;2.25;;;;;15.84;43.67;101127.81;5022375;28;45350;-89
2022/05/29 09:23:13;;;;;;;;;1.75;1.00;;;;;15.89;43.22;101126.50;5023167;28;46061;-86
2022/05/29 09:25:43;;;;;;;;;2.00;2.00;;;;;15.97;42.88;101125.97;5023160;28;47427;-87
2022/05/29 09:28:41;;;;;;;;;1.00;1.00;;;;;16.04;42.83;101129.88;5025877;28;45412;-89
2022/05/29 09:31:11;;;;;;;;;3.00;1.00;;;;;16.11;42.63;101116.88;4985393;28;45456;-89
2022/05/29 09:33:38;;;;;;;;;2.00;1.00;;;;;16.16;42.28;101117.38;4972572;28;45417;-89
2022/05/29 09:36:25;;;;;;;;;0.50;0.50;;;;;16.23;41.77;101123.16;4988286;28;45379;-88
2022/05/29 09:39:28;;;;;;;;;1.00;1.00;;;;;16.28;41.37;101115.63;4985526;28;46074;-89
2022/05/29 09:42:09;;;;;;;;;2.75;2.75;;;;;16.34;41.39;101116.03;4952997;28;46010;-88
2022/05/29 09:44:35;;;;;;;;;0.75;0.75;;;;;16.39;41.20;101110.31;4937101;28;45582;-89
2022/05/29 09:50:04;;;;;;;;;1.00;1.00;;;;;16.51;40.79;101105.88;4952764;28;45889;-88
2022/05/29 09:52:38;;;;;;;;;1.00;1.00;;;;;16.58;40.77;101101.75;4952589;28;45525;-89
2022/05/29 09:55:28;;;;;;;;;1.00;0.75;;;;;16.66;39.99;101098.47;4952896;28;45478;-90
2022/05/29 09:57:59;;;;;;;;;0.25;0.25;;;;;16.72;39.94;101098.84;4952616;28;45418;-89
2022/05/29 10:00:37;;;;;;;;;1.00;1.00;;;;;16.82;39.12;101099.03;4952614;28;46139;-90
2022/05/29 10:03:06;;;;;;;;;1.00;1.00;;;;;16.86;39.46;101084.41;4957048;28;45575;-89
2022/05/29 10:05:37;;;;;;;;;1.50;0.00;;;;;16.97;39.76;101080.88;4964782;28;46291;-89
2022/05/29 10:08:27;;;;;;;;;0.50;0.50;;;;;17.07;39.05;101089.06;4971420;28;45340;-92
2022/05/29 10:10:52;;;;;;;;;0.75;0.75;;;;;17.12;39.33;101078.81;4970557;28;46144;-90
2022/05/29 10:13:38;;;;;;;;;0.50;0.50;;;;;17.21;38.77;101091.53;4966848;28;45451;-84
2022/05/29 10:16:04;;;;;;;;;0.25;0.25;;;;;17.30;38.31;101089.97;4964942;28;45531;-80
2022/05/29 10:18:38;;;;;;;;;0.50;0.50;;;;;17.33;38.28;101078.97;4987315;28;45519;-80
2022/05/29 10:21:20;;;;;;;;;1.00;0.75;;;;;17.38;38.63;101077.59;5019795;28;46699;-80
2022/05/29 10:23:53;;;;;;;;;1.00;1.00;;;;;17.43;38.31;101085.31;5033129;28;45297;-80
2022/05/29 10:26:33;;;;;;;;;0.00;0.00;;;;;17.48;38.74;101079.56;5024145;28;45369;-80
2022/05/29 10:29:02;;;;;;;;;2.00;2.00;;;;;17.47;38.26;101073.34;5024907;28;45390;-80
2022/05/29 10:31:36;;;;;;;;;0.75;0.75;;;;;17.50;38.38;101081.16;5024555;28;46996;-80
2022/05/29 10:34:06;;;;;;;;;0.75;0.75;;;;;17.51;38.71;101074.81;5024564;28;45461;-80
2022/05/29 10:36:31;;;;;;;;;3.25;3.25;;;;;17.53;38.58;101083.59;5005000;28;45490;-80
2022/05/29 10:39:29;;;;;;;;;2.00;2.00;;;;;17.52;37.46;101078.34;5020135;28;45334;-80
2022/05/29 10:41:57;;;;;;;;;0.75;0.75;;;;;17.48;37.30;101080.41;5034111;28;46360;-80
2022/05/29 10:44:46;;;;;;;;;2.50;2.00;;;;;17.45;37.97;101077.97;5020920;28;45393;-80
2022/05/29 10:47:26;;;;;;;;;1.00;1.00;;;;;17.43;38.10;101063.78;5023836;28;45476;-80
2022/05/29 10:49:52;;;;;;;;;3.75;0.75;;;;;17.41;38.45;101065.72;5024507;28;45374;-80
2022/05/29 10:52:35;;;;;;;;;2.50;1.00;;;;;17.40;38.48;101064.88;5024993;28;46308;-81
2022/05/29 10:55:43;;;;;;;;;3.00;3.00;;;;;17.40;38.76;101074.81;5025460;28;45572;-81
2022/05/29 10:58:32;;;;;;;;;1.00;1.00;;;;;17.38;37.91;101064.16;5010363;28;45686;-81
2022/05/29 11:04:13;;;;;;;;;1.00;1.00;;;;;17.34;37.59;101054.63;5024883;28;45851;-83
2022/05/29 11:06:41;;;;;;;;;2.00;0.75;;;;;17.37;37.58;101062.44;5024211;28;45512;-83
2022/05/29 11:09:57;;;;;;;;;1.00;1.00;;;;;17.38;37.23;101061.44;5022601;28;45608;-84
2022/05/29 11:12:53;;;;;;;;;0.50;0.50;;;;;17.36;36.98;101052.63;5008464;28;45467;-82
2022/05/29 11:15:34;;;;;;;;;1.00;1.00;;;;;17.35;37.12;101042.88;5003883;28;45507;-83
2022/05/29 11:18:20;;;;;;;;;0.50;0.50;;;;;17.33;36.79;101043.97;5001900;28;45400;-84
2022/05/29 11:21:08;;;;;;;;;2.00;2.00;;;;;17.30;35.92;101041.53;5009530;28;45762;-84
2022/05/29 11:24:13;;;;;;;;;1.75;1.75;;;;;17.31;36.75;101035.16;4996673;28;45791;-84
2022/05/29 11:26:42;;;;;;;;;1.00;1.00;;;;;17.37;37.06;101027.47;5022023;28;45967;-85
2022/05/29 11:29:22;;;;;;;;;0.00;0.00;;;;;17.49;36.80;101025.63;5008365;28;45444;-85
2022/05/29 11:31:54;;;;;;;;;3.00;1.50;;;;;17.63;36.60;101032.56;5007981;28;45908;-87
2022/05/29 11:34:34;;;;;;;;;2.00;1.25;;;;;17.77;36.59;101023.34;5008210;28;45470;-88
2022/05/29 11:37:36;;;;;;;;;1.50;0.75;;;;;17.87;37.19;101027.91;5004675;28;46395;-86
2022/05/29 11:40:23;;;;;;;;;0.75;0.75;;;;;18.00;35.90;101011.59;5002105;28;45536;-82
2022/05/29 11:43:12;;;;;;;;;4.00;2.50;;;;;18.09;35.30;101013.50;4987537;28;45555;-81
2022/05/29 11:51:40;;;;;;;;;0.25;0.25;;;;;18.23;35.48;101015.06;5006970;28;45640;-81
2022/05/29 11:54:23;;;;;;;;;1.50;1.50;;;;;18.27;35.67;101003.00;5013029;28;45531;-81
2022/05/29 11:57:08;;;;;;;;;3.25;1.25;;;;;18.33;35.32;101000.78;5006312;28;45530;-83
2022/05/29 11:59:57;;;;;;;;;2.25;0.75;;;;;18.37;35.71;100994.16;4999806;28;46491;-81
2022/05/29 12:02:38;;;;;;;;;1.75;1.25;;;;;18.46;35.74;100991.53;5006756;28;45543;-80
2022/05/29 12:05:37;;;;;;;;;0.50;0.50;;;;;18.56;35.86;100988.91;5005757;28;45556;-80
2022/05/29 12:08:44;;;;;;;;;2.00;2.00;;;;;18.70;35.95;100979.63;5012022;28;45368;-80
2022/05/29 12:11:25;;;;;;;;;1.00;1.00;;;;;18.78;35.66;100971.75;5005946;28;48100;-78
2022/05/29 12:14:03;;;;;;;;;1.00;1.00;;;;;18.86;35.23;100969.25;5006442;28;46077;-77
2022/05/29 12:16:32;;;;;;;;;0.00;0.00;;;;;18.93;35.03;100953.38;5001998;28;45664;-78
2022/05/29 12:19:03;;;;;;;;;1.00;1.00;;;;;19.02;34.44;100962.50;5004348;28;45421;-77
2022/05/29 12:21:43;;;;;;;;;1.00;1.00;;;;;19.13;34.32;100957.84;4999587;28;46187;-76
2022/05/29 12:24:14;;;;;;;;;1.00;1.00;;;;;19.19;33.97;100955.59;5000291;28;45424;-77
2022/05/29 12:26:47;;;;;;;;;1.00;1.00;;;;;19.26;33.81;100967.56;5009818;28;45449;-77